SWA2177 KTUL-KDAL
Flight info
| Callsign | SWA2177 |
|---|---|
| Flight time | N/A |
| Altitude | 28000 |
| Route | DCT PEJAY DCT AXXEE HIBIL3 |
| Aircraft | B38M/M-SDE1FGHILORVWXY/HB1 |
Departure
| Time | 2026-04-21 01:10 |
|---|---|
| Airport | Tulsa International Airport (KTUL) |
Arrival
| Time | N/A |
|---|---|
| Airport | Dallas Love Field (KDAL) |
| Time | Latitude | Longitude | Altitude | Speed | Heading |
|---|---|---|---|---|---|
| 2026-04-21 01:10 | 35.92925 | -95.90873 | 10228 ft | 294 kts | 185° |
| 2026-04-21 01:10 | 35.90881 | -95.91025 | 10225 ft | 302 kts | 186° |
| 2026-04-21 01:10 | 35.88764 | -95.91211 | 10230 ft | 309 kts | 186° |
| 2026-04-21 01:10 | 35.86593 | -95.91375 | 10225 ft | 315 kts | 185° |
| 2026-04-21 01:11 | 35.84392 | -95.91502 | 10228 ft | 320 kts | 184° |
| 2026-04-21 01:11 | 35.82155 | -95.91636 | 10220 ft | 323 kts | 185° |
| 2026-04-21 01:11 | 35.79892 | -95.91772 | 10220 ft | 327 kts | 184° |
| 2026-04-21 01:11 | 35.77612 | -95.91870 | 10222 ft | 329 kts | 184° |
| 2026-04-21 01:12 | 35.75318 | -95.92018 | 10219 ft | 331 kts | 185° |
| 2026-04-21 01:12 | 35.73008 | -95.92194 | 10218 ft | 333 kts | 185° |
| 2026-04-21 01:12 | 35.70691 | -95.92362 | 10215 ft | 334 kts | 186° |
| 2026-04-21 01:12 | 35.68370 | -95.92573 | 10224 ft | 335 kts | 186° |
| 2026-04-21 01:13 | 35.66038 | -95.92769 | 10219 ft | 336 kts | 187° |
| 2026-04-21 01:13 | 35.63713 | -95.92932 | 10311 ft | 334 kts | 184° |
| 2026-04-21 01:13 | 35.61394 | -95.93027 | 10412 ft | 332 kts | 183° |
| 2026-04-21 01:13 | 35.59090 | -95.93089 | 10485 ft | 332 kts | 182° |
| 2026-04-21 01:14 | 35.56767 | -95.93126 | 10504 ft | 334 kts | 182° |
| 2026-04-21 01:14 | 35.54430 | -95.93154 | 10504 ft | 336 kts | 182° |
| 2026-04-21 01:14 | 35.52096 | -95.93187 | 10538 ft | 336 kts | 182° |
| 2026-04-21 01:14 | 35.49765 | -95.93230 | 10600 ft | 335 kts | 182° |
| 2026-04-21 01:15 | 35.47439 | -95.93271 | 10684 ft | 334 kts | 182° |
| 2026-04-21 01:15 | 35.45112 | -95.93304 | 10737 ft | 334 kts | 182° |
| 2026-04-21 01:15 | 35.42786 | -95.93318 | 10762 ft | 335 kts | 181° |
| 2026-04-21 01:15 | 35.40453 | -95.93316 | 10776 ft | 335 kts | 182° |
| 2026-04-21 01:16 | 35.38132 | -95.93567 | 10796 ft | 335 kts | 188° |
| 2026-04-21 01:16 | 35.35801 | -95.93347 | 10551 ft | 347 kts | 164° |
| 2026-04-21 01:16 | 35.33730 | -95.91775 | 10403 ft | 356 kts | 136° |
| 2026-04-21 01:16 | 35.32321 | -95.89260 | 10321 ft | 360 kts | 122° |
| 2026-04-21 01:17 | 35.30999 | -95.86653 | 10205 ft | 361 kts | 124° |
| 2026-04-21 01:17 | 35.29611 | -95.84087 | 10089 ft | 362 kts | 126° |
| 2026-04-21 01:17 | 35.28192 | -95.81549 | 10036 ft | 361 kts | 126° |
| 2026-04-21 01:17 | 35.26780 | -95.79064 | 10269 ft | 351 kts | 126° |
| 2026-04-21 01:18 | 35.25390 | -95.76635 | 10479 ft | 344 kts | 127° |
| 2026-04-21 01:18 | 35.24026 | -95.74260 | 10695 ft | 338 kts | 127° |
| 2026-04-21 01:18 | 35.22681 | -95.71921 | 10915 ft | 333 kts | 127° |
| 2026-04-21 01:18 | 35.21356 | -95.69618 | 11131 ft | 329 kts | 127° |
| 2026-04-21 01:19 | 35.20048 | -95.67347 | 11356 ft | 325 kts | 126° |
| 2026-04-21 01:19 | 35.18750 | -95.65097 | 11577 ft | 322 kts | 127° |
| 2026-04-21 01:19 | 35.17465 | -95.62867 | 11813 ft | 319 kts | 127° |
| 2026-04-21 01:19 | 35.16191 | -95.60660 | 12039 ft | 316 kts | 127° |
| 2026-04-21 01:20 | 35.14928 | -95.58471 | 12268 ft | 314 kts | 126° |
| 2026-04-21 01:20 | 35.13676 | -95.56304 | 12501 ft | 312 kts | 127° |
| 2026-04-21 01:20 | 35.12443 | -95.54170 | 12738 ft | 310 kts | 127° |
| 2026-04-21 01:20 | 35.11203 | -95.52025 | 12973 ft | 308 kts | 127° |
| 2026-04-21 01:21 | 35.09970 | -95.49893 | 13209 ft | 307 kts | 127° |
| 2026-04-21 01:21 | 35.08746 | -95.47780 | 13454 ft | 305 kts | 127° |
| 2026-04-21 01:21 | 35.07518 | -95.45661 | 13689 ft | 304 kts | 126° |
| 2026-04-21 01:21 | 35.06301 | -95.43561 | 13944 ft | 302 kts | 126° |
| 2026-04-21 01:22 | 35.05086 | -95.41466 | 14166 ft | 301 kts | 126° |
| 2026-04-21 01:22 | 35.03881 | -95.39389 | 14384 ft | 300 kts | 126° |
| 2026-04-21 01:22 | 35.02674 | -95.37311 | 14598 ft | 298 kts | 126° |
| 2026-04-21 01:22 | 35.01478 | -95.35251 | 14822 ft | 297 kts | 126° |
| 2026-04-21 01:23 | 35.00290 | -95.33207 | 15033 ft | 295 kts | 126° |
| 2026-04-21 01:23 | 34.99096 | -95.31155 | 15256 ft | 294 kts | 126° |
| 2026-04-21 01:23 | 34.97933 | -95.29156 | 15480 ft | 292 kts | 126° |
| 2026-04-21 01:23 | 34.96744 | -95.27113 | 15704 ft | 291 kts | 126° |
| 2026-04-21 01:24 | 34.95590 | -95.25133 | 15944 ft | 289 kts | 126° |
| 2026-04-21 01:24 | 34.94430 | -95.23143 | 16161 ft | 287 kts | 126° |
| 2026-04-21 01:24 | 34.93275 | -95.21162 | 16388 ft | 285 kts | 126° |
| 2026-04-21 01:24 | 34.92130 | -95.19200 | 16616 ft | 283 kts | 126° |
| 2026-04-21 01:25 | 34.90990 | -95.17247 | 16849 ft | 281 kts | 126° |
| 2026-04-21 01:25 | 34.89862 | -95.15316 | 17083 ft | 279 kts | 126° |
| 2026-04-21 01:25 | 34.88738 | -95.13393 | 17316 ft | 277 kts | 126° |
| 2026-04-21 01:25 | 34.87629 | -95.11496 | 17552 ft | 274 kts | 126° |
| 2026-04-21 01:26 | 34.86523 | -95.09606 | 17788 ft | 272 kts | 126° |
| 2026-04-21 01:26 | 34.85432 | -95.07743 | 18022 ft | 269 kts | 126° |
| 2026-04-21 01:26 | 34.84353 | -95.05900 | 18267 ft | 266 kts | 126° |
| 2026-04-21 01:26 | 34.83282 | -95.04072 | 18504 ft | 263 kts | 126° |
| 2026-04-21 01:27 | 34.82225 | -95.02269 | 18721 ft | 260 kts | 126° |
| 2026-04-21 01:27 | 34.81184 | -95.00495 | 18906 ft | 256 kts | 126° |
| 2026-04-21 01:27 | 34.80154 | -94.98740 | 19120 ft | 252 kts | 126° |
| 2026-04-21 01:27 | 34.79144 | -94.97020 | 19336 ft | 248 kts | 126° |
| 2026-04-21 01:28 | 34.78152 | -94.95332 | 19525 ft | 243 kts | 126° |
| 2026-04-21 01:28 | 34.77182 | -94.93680 | 19730 ft | 237 kts | 126° |
| 2026-04-21 01:28 | 34.76237 | -94.92072 | 19929 ft | 230 kts | 127° |
| 2026-04-21 01:28 | 34.75321 | -94.90514 | 20119 ft | 223 kts | 127° |
| 2026-04-21 01:29 | 34.74439 | -94.89016 | 20237 ft | 218 kts | 127° |
| 2026-04-21 01:29 | 34.73545 | -94.87498 | 20274 ft | 226 kts | 127° |
| 2026-04-21 01:29 | 34.72592 | -94.85884 | 20305 ft | 243 kts | 127° |
| 2026-04-21 01:29 | 34.71413 | -94.84329 | 20252 ft | 261 kts | 151° |
| 2026-04-21 01:30 | 34.69666 | -94.83705 | 20278 ft | 271 kts | 184° |
| 2026-04-21 01:30 | 34.67870 | -94.84414 | 20286 ft | 280 kts | 216° |
| 2026-04-21 01:30 | 34.66273 | -94.85907 | 20265 ft | 298 kts | 221° |
| 2026-04-21 01:30 | 34.64664 | -94.87541 | 20274 ft | 314 kts | 221° |
| 2026-04-21 01:31 | 34.62955 | -94.89291 | 20275 ft | 329 kts | 221° |
| 2026-04-21 01:31 | 34.61164 | -94.91105 | 20272 ft | 342 kts | 221° |
| 2026-04-21 01:31 | 34.59301 | -94.92969 | 20327 ft | 352 kts | 220° |
| 2026-04-21 01:31 | 34.57383 | -94.94869 | 20371 ft | 360 kts | 220° |
| 2026-04-21 01:32 | 34.55417 | -94.96802 | 20422 ft | 367 kts | 220° |
| 2026-04-21 01:32 | 34.53412 | -94.98765 | 20475 ft | 373 kts | 220° |
| 2026-04-21 01:32 | 34.51374 | -95.00755 | 20527 ft | 379 kts | 220° |
| 2026-04-21 01:32 | 34.49305 | -95.02771 | 20577 ft | 383 kts | 220° |
| 2026-04-21 01:33 | 34.47209 | -95.04811 | 20631 ft | 387 kts | 220° |
| 2026-04-21 01:33 | 34.45103 | -95.06861 | 20679 ft | 391 kts | 220° |
| 2026-04-21 01:33 | 34.42973 | -95.08932 | 20727 ft | 393 kts | 220° |
| 2026-04-21 01:33 | 34.40836 | -95.11009 | 20778 ft | 395 kts | 220° |
| 2026-04-21 01:34 | 34.38683 | -95.13099 | 20828 ft | 397 kts | 220° |
| 2026-04-21 01:34 | 34.36530 | -95.15190 | 20877 ft | 399 kts | 220° |
| 2026-04-21 01:34 | 34.34361 | -95.17294 | 20927 ft | 400 kts | 220° |
| 2026-04-21 01:34 | 34.32189 | -95.19399 | 20977 ft | 401 kts | 220° |
| 2026-04-21 01:35 | 34.30008 | -95.21512 | 21031 ft | 401 kts | 220° |
| 2026-04-21 01:35 | 34.27833 | -95.23631 | 21085 ft | 400 kts | 221° |
| 2026-04-21 01:35 | 34.26405 | -95.25033 | 21107 ft | 400 kts | 221° |
| 2026-04-21 01:35 | 34.23872 | -95.27526 | 21159 ft | 400 kts | 221° |
| 2026-04-21 01:36 | 34.21719 | -95.29647 | 21205 ft | 400 kts | 221° |
| 2026-04-21 01:36 | 34.19593 | -95.31738 | 21256 ft | 400 kts | 221° |
| 2026-04-21 01:36 | 34.17436 | -95.33858 | 21305 ft | 399 kts | 221° |
| 2026-04-21 01:36 | 34.15278 | -95.35976 | 21355 ft | 399 kts | 221° |
| 2026-04-21 01:37 | 34.13123 | -95.38087 | 21401 ft | 399 kts | 221° |
| 2026-04-21 01:37 | 34.10968 | -95.40199 | 21451 ft | 399 kts | 221° |
| 2026-04-21 01:37 | 34.08811 | -95.42311 | 21497 ft | 399 kts | 221° |
| 2026-04-21 01:37 | 34.06658 | -95.44416 | 21545 ft | 399 kts | 221° |
| 2026-04-21 01:38 | 34.04504 | -95.46523 | 21595 ft | 398 kts | 222° |
| 2026-04-21 01:38 | 34.02348 | -95.48629 | 21644 ft | 398 kts | 222° |
| 2026-04-21 01:38 | 34.00899 | -95.50043 | 21674 ft | 398 kts | 222° |
| 2026-04-21 01:38 | 33.98774 | -95.52113 | 21726 ft | 398 kts | 221° |
| 2026-04-21 01:39 | 33.96602 | -95.54198 | 21777 ft | 398 kts | 221° |
| 2026-04-21 01:39 | 33.94435 | -95.56264 | 21819 ft | 398 kts | 221° |
| 2026-04-21 01:39 | 33.92262 | -95.58335 | 21873 ft | 398 kts | 221° |
| 2026-04-21 01:39 | 33.90095 | -95.60403 | 21916 ft | 398 kts | 221° |
| 2026-04-21 01:40 | 33.87924 | -95.62484 | 21975 ft | 398 kts | 221° |
| 2026-04-21 01:40 | 33.85761 | -95.64562 | 22028 ft | 397 kts | 221° |
| 2026-04-21 01:40 | 33.83603 | -95.66638 | 22090 ft | 397 kts | 221° |
| 2026-04-21 01:40 | 33.81450 | -95.68706 | 22205 ft | 395 kts | 221° |
| 2026-04-21 01:41 | 33.79303 | -95.70769 | 22257 ft | 395 kts | 221° |
| 2026-04-21 01:41 | 33.77152 | -95.72833 | 22261 ft | 397 kts | 221° |
| 2026-04-21 01:41 | 33.74996 | -95.74900 | 22269 ft | 398 kts | 221° |
| 2026-04-21 01:41 | 33.72824 | -95.76981 | 22273 ft | 398 kts | 221° |
| 2026-04-21 01:42 | 33.70661 | -95.79051 | 22270 ft | 399 kts | 221° |
| 2026-04-21 01:42 | 33.68485 | -95.81133 | 22267 ft | 400 kts | 221° |
| 2026-04-21 01:42 | 33.66305 | -95.83217 | 22268 ft | 400 kts | 221° |
| 2026-04-21 01:42 | 33.64122 | -95.85302 | 22276 ft | 401 kts | 221° |
| 2026-04-21 01:43 | 33.62003 | -95.87326 | 22271 ft | 401 kts | 221° |
| 2026-04-21 01:43 | 33.59807 | -95.89421 | 22274 ft | 401 kts | 221° |
| 2026-04-21 01:43 | 33.57624 | -95.91501 | 22268 ft | 401 kts | 221° |
| 2026-04-21 01:43 | 33.55430 | -95.93593 | 22273 ft | 401 kts | 221° |
| 2026-04-21 01:44 | 33.53243 | -95.95676 | 22271 ft | 401 kts | 221° |
| 2026-04-21 01:44 | 33.51032 | -95.97782 | 21800 ft | 413 kts | 220° |
| 2026-04-21 01:44 | 33.48783 | -95.99922 | 21306 ft | 423 kts | 220° |
| 2026-04-21 01:44 | 33.46454 | -96.02135 | 20796 ft | 432 kts | 220° |
| 2026-04-21 01:45 | 33.44078 | -96.04395 | 20296 ft | 439 kts | 220° |
| 2026-04-21 01:45 | 33.41641 | -96.06712 | 20091 ft | 438 kts | 220° |
| 2026-04-21 01:45 | 33.39292 | -96.08944 | 20442 ft | 424 kts | 220° |
| 2026-04-21 01:45 | 33.37028 | -96.11096 | 20826 ft | 411 kts | 220° |
| 2026-04-21 01:46 | 33.34833 | -96.13191 | 20978 ft | 406 kts | 220° |
| 2026-04-21 01:46 | 33.32852 | -96.15541 | 20976 ft | 396 kts | 235° |
| 2026-04-21 01:46 | 33.31538 | -96.18359 | 21267 ft | 381 kts | 248° |
| 2026-04-21 01:46 | 33.30530 | -96.21240 | 21183 ft | 379 kts | 248° |
| 2026-04-21 01:47 | 33.29486 | -96.24223 | 20336 ft | 398 kts | 248° |
| 2026-04-21 01:47 | 33.28412 | -96.27219 | 19788 ft | 382 kts | 248° |
| 2026-04-21 01:47 | 33.27399 | -96.30150 | 18381 ft | 384 kts | 249° |
| 2026-04-21 01:47 | 33.26519 | -96.32796 | 17758 ft | 374 kts | 249° |